^^
Station Historical Data
Daily Summary for September 30, 2017 Units:  English    Metric   Both
« Previous Day
Next Day »
Daily Weekly Monthly Yearly Custom
  High: Low: Average:
Temperature: 60.1 °F 51.0 °F 54.7 °F
Dew Point: 53.6 °F 47.6 °F 50.5 °F
Humidity: 96% 75% 86%
Wind Speed: 6.0mph 0.0mph 1.2mph
Wind Gust: 16.0mph - -
Wind- - West
Pressure: 30.36 in 30.01 in -
Precipitation: 0.02 in    
Historical Graphs
 
 
Tabular Data for September 30, 2017
Time Temperature Dew Point Pressure Wind Wind Speed Wind Gust Humidity Rainfall Rate (Hourly) Conditions
00:00 55.6 °F 47.8 °F 30.03 in Calm     75% 0.00 in FEW
00:15 56.3 °F 49.2 °F 30.04 in Calm   2.0 mph 77% 0.00 in FEW
00:30 55.1 °F 49.7 °F 30.04 in Calm   4.0 mph 82% 0.00 in FEW
00:45 54.8 °F 50.4 °F 30.04 in Calm     85% 0.00 in FEW
01:00 55.0 °F 50.9 °F 30.05 in Calm     86% 0.00 in FEW
01:15 55.9 °F 51.1 °F 30.05 in Calm   1.0 mph 84% 0.00 in -RA
01:30 56.1 °F 51.6 °F 30.04 in Calm   4.0 mph 85% 0.01 in -RA
01:45 55.5 °F 52.3 °F 30.04 in Calm   2.0 mph 89% 0.00 in -RA
02:00 55.1 °F 52.2 °F 30.03 in Calm   2.0 mph 90% 0.00 in -RA
02:15 54.8 °F 52.3 °F 30.03 in Calm   2.0 mph 91% 0.00 in -RA
02:30 54.5 °F 51.9 °F 30.02 in Calm   1.0 mph 91% 0.00 in -RA
02:45 54.1 °F 51.5 °F 30.01 in Calm   1.0 mph 91% 0.00 in -RA
03:00 53.4 °F 50.9 °F 30.01 in Calm   1.0 mph 91% 0.00 in -RA
03:15 53.4 °F 51.1 °F 30.01 in Calm   2.0 mph 92% 0.00 in BKN
03:30 53.1 °F 50.8 °F 30.01 in Calm   1.0 mph 92% 0.00 in BKN
03:45 52.9 °F 50.9 °F 30.01 in Calm   2.0 mph 93% 0.00 in BKN
04:00 52.6 °F 50.6 °F 30.02 in Calm   1.0 mph 93% 0.00 in BKN
04:15 52.1 °F 50.1 °F 30.02 in Calm   1.0 mph 93% 0.00 in FEW
04:30 51.8 °F 50.1 °F 30.02 in Calm   1.0 mph 94% 0.00 in FEW
04:45 52.3 °F 50.7 °F 30.02 in Calm   2.0 mph 94% 0.00 in FEW
05:00 52.0 °F 50.0 °F 30.03 in Calm   1.0 mph 93% 0.00 in FEW
05:15 51.8 °F 49.8 °F 30.03 in Calm     93% 0.00 in FEW
05:30 51.3 °F 49.6 °F 30.04 in Calm     94% 0.00 in FEW
05:45 51.2 °F 49.8 °F 30.04 in Calm     95% 0.00 in FEW
05:59 51.1 °F 49.7 °F 30.04 in Calm     95% 0.00 in FEW
06:15 52.2 °F 51.1 °F 30.05 in Calm     96% 0.00 in SCT
06:30 53.0 °F 51.9 °F 30.05 in Calm   1.0 mph 96% 0.00 in SCT
06:45 53.1 °F 51.7 °F 30.05 in Calm   1.0 mph 95% 0.00 in SCT
07:00 52.6 °F 51.2 °F 30.06 in Calm     95% 0.00 in SCT
07:15 53.2 °F 52.1 °F 30.06 in Calm     96% 0.00 in BKN
07:30 53.3 °F 52.2 °F 30.07 in Calm   1.0 mph 96% 0.00 in BKN
07:45 53.5 °F 52.4 °F 30.07 in Calm     96% 0.00 in BKN
08:00 54.0 °F 52.9 °F 30.07 in Calm   1.0 mph 96% 0.00 in BKN
08:15 54.6 °F 52.9 °F 30.08 in Calm   2.0 mph 94% 0.00 in BKN
08:30 55.0 °F 52.4 °F 30.08 in NNW 1.0 mph 3.0 mph 91% 0.00 in BKN
08:45 55.4 °F 52.5 °F 30.08 in NNW 1.0 mph 3.0 mph 90% 0.00 in BKN
09:00 56.8 °F 52.3 °F 30.08 in NW 3.0 mph 7.0 mph 85% 0.00 in BKN
09:15 57.1 °F 52.0 °F 30.09 in North 1.0 mph 10.0 mph 83% 0.01 in RA
09:30 57.1 °F 52.0 °F 30.09 in North 2.0 mph 7.0 mph 83% 0.00 in SCT
09:45 57.1 °F 52.3 °F 30.10 in North 5.0 mph 9.0 mph 84% 0.00 in SCT
10:00 57.1 °F 52.3 °F 30.11 in NE 3.0 mph 8.0 mph 84% 0.00 in SCT
10:15 58.1 °F 52.3 °F 30.11 in North 6.0 mph 12.0 mph 81% 0.00 in BKN
10:30 57.3 °F 52.5 °F 30.12 in NNW 1.0 mph 8.0 mph 84% 0.00 in BKN
10:45 56.8 °F 52.3 °F 30.12 in NNE 3.0 mph 7.0 mph 85% 0.00 in BKN
11:00 57.1 °F 52.0 °F 30.12 in NW 2.0 mph 9.0 mph 83% 0.00 in BKN
11:15 57.1 °F 52.3 °F 30.13 in North 3.0 mph 12.0 mph 84% 0.00 in BKN
11:30 57.4 °F 52.2 °F 30.13 in NNW 1.0 mph 8.0 mph 83% 0.00 in BKN
11:45 58.6 °F 52.8 °F 30.14 in NNW 3.0 mph 12.0 mph 81% 0.00 in BKN
12:00 60.1 °F 52.8 °F 30.14 in North 1.0 mph 12.0 mph 77% 0.00 in BKN
12:15 59.8 °F 53.6 °F 30.14 in NE 2.0 mph 15.0 mph 80% 0.00 in BKN
12:30 58.5 °F 53.1 °F 30.15 in NNW 1.0 mph 12.0 mph 82% 0.00 in BKN
12:45 58.7 °F 53.5 °F 30.16 in North 1.0 mph 12.0 mph 83% 0.00 in BKN
13:00 58.1 °F 52.6 °F 30.16 in North 1.0 mph 12.0 mph 82% 0.00 in BKN
13:15 58.8 °F 51.6 °F 30.16 in NNW 5.0 mph 10.0 mph 77% 0.00 in BKN
13:30 59.1 °F 51.5 °F 30.16 in NW 3.0 mph 10.0 mph 76% 0.00 in BKN
13:45 58.9 °F 51.7 °F 30.16 in North 3.0 mph 12.0 mph 77% 0.00 in BKN
14:00 59.0 °F 51.8 °F 30.16 in NNW 1.0 mph 10.0 mph 77% 0.00 in BKN
14:30 59.2 °F 51.6 °F 30.17 in NW 5.0 mph 12.0 mph 76% 0.00 in BKN
14:45 58.8 °F 50.9 °F 30.18 in North 1.0 mph 8.0 mph 75% 0.00 in BKN
15:00 57.9 °F 50.7 °F 30.19 in NNW 2.0 mph 12.0 mph 77% 0.00 in BKN
15:15 56.8 °F 50.7 °F 30.20 in NNW 3.0 mph 16.0 mph 80% 0.00 in BKN
15:30 56.8 °F 50.4 °F 30.20 in Calm   12.0 mph 79% 0.00 in BKN
15:45 56.8 °F 50.7 °F 30.21 in NNW 5.0 mph 10.0 mph 80% 0.00 in BKN
16:00 56.6 °F 49.8 °F 30.21 in North 3.0 mph 12.0 mph 78% 0.00 in BKN
16:15 57.0 °F 49.9 °F 30.22 in NNW 3.0 mph 10.0 mph 77% 0.00 in BKN
16:30 57.1 °F 50.3 °F 30.22 in NNW 1.0 mph 10.0 mph 78% 0.00 in BKN
16:45 56.3 °F 49.5 °F 30.23 in NW 3.0 mph 10.0 mph 78% 0.00 in BKN
17:00 55.5 °F 49.1 °F 30.23 in NW 3.0 mph 12.0 mph 79% 0.00 in BKN
17:15 55.2 °F 49.1 °F 30.24 in North 2.0 mph 9.0 mph 80% 0.00 in BKN
17:30 54.9 °F 48.8 °F 30.25 in NW 2.0 mph 9.0 mph 80% 0.00 in BKN
17:45 54.7 °F 48.7 °F 30.26 in NNW 2.0 mph 8.0 mph 80% 0.00 in BKN
18:15 53.4 °F 48.4 °F 30.28 in NNW 2.0 mph 9.0 mph 83% 0.00 in BKN
18:30 53.1 °F 48.4 °F 30.29 in NW 1.0 mph 8.0 mph 84% 0.00 in BKN
18:45 52.8 °F 48.4 °F 30.29 in NNW 2.0 mph 7.0 mph 85% 0.00 in BKN
19:00 52.5 °F 48.1 °F 30.30 in NW 1.0 mph 9.0 mph 85% 0.00 in BKN
19:15 52.3 °F 48.3 °F 30.30 in North 1.0 mph 10.0 mph 86% 0.00 in BKN
19:30 52.3 °F 48.2 °F 30.31 in NNW 1.0 mph 9.0 mph 86% 0.00 in BKN
19:45 52.2 °F 48.1 °F 30.32 in NNW 2.0 mph 13.0 mph 86% 0.00 in BKN
20:00 52.1 °F 48.1 °F 30.32 in NNW 1.0 mph 10.0 mph 86% 0.00 in BKN
20:15 52.1 °F 48.0 °F 30.32 in NE 1.0 mph 9.0 mph 86% 0.00 in BKN
20:30 52.1 °F 48.0 °F 30.32 in NNW 2.0 mph 5.0 mph 86% 0.00 in BKN
20:45 52.1 °F 48.0 °F 30.33 in NNW 2.0 mph 6.0 mph 86% 0.00 in BKN
21:00 52.1 °F 48.0 °F 30.33 in NNW 2.0 mph 5.0 mph 86% 0.00 in BKN
21:15 52.1 °F 48.0 °F 30.33 in Calm   4.0 mph 86% 0.00 in BKN
21:30 52.0 °F 47.9 °F 30.33 in NW 1.0 mph 7.0 mph 86% 0.00 in BKN
21:45 51.9 °F 47.9 °F 30.34 in NW 1.0 mph 5.0 mph 86% 0.00 in BKN
22:00 52.0 °F 47.9 °F 30.34 in NW 2.0 mph 6.0 mph 86% 0.00 in BKN
22:15 51.9 °F 47.9 °F 30.35 in NNW 1.0 mph 4.0 mph 86% 0.00 in BKN
22:30 51.9 °F 48.2 °F 30.35 in NW 2.0 mph 4.0 mph 87% 0.00 in BKN
22:45 51.8 °F 48.1 °F 30.35 in Calm   7.0 mph 87% 0.00 in BKN
23:00 51.8 °F 48.1 °F 30.35 in North 1.0 mph 6.0 mph 87% 0.00 in BKN
23:15 51.7 °F 48.0 °F 30.36 in NNW 2.0 mph 5.0 mph 87% 0.00 in BKN
23:30 51.4 °F 48.0 °F 30.35 in Calm   4.0 mph 88% 0.00 in BKN
23:45 51.0 °F 47.6 °F 30.36 in Calm   3.0 mph 88% 0.00 in BKN
TarryTown NY Weather
Compliments of Weather Underground - 1.5 mb